Terminal Aerodrome Forecast
Issued by NWS Mt. Holly, NJ

Home | Current Version | Previous Version | Text Only | Print | Product List | Glossary On
Versions: 1 2 3 4 5 6 7 8 9 10 11 12 13 14 15 16 17 18 19 20 21 22 23 24 25
000
FTUS41 KPHI 241430 AAA
TAFPHL
TAF AMD
KPHL 241430Z 2415/2518 20010G18KT P6SM FEW200
     FM242300 17008KT P6SM SCT045
     FM250800 17006KT 2SM BR OVC008
     FM251400 17008KT P6SM BKN012
     FM251600 17010G18KT P6SM BKN040=

USA.gov is the U.S. government's official web portal to all federal, state and local government web resources and services.